createdAt,value
2022-08-16T00:01:21.825Z,61.81
2022-08-16T00:03:54.384Z,61.87
2022-08-16T00:06:22.834Z,61.89
2022-08-16T00:08:52.448Z,61.97
2022-08-16T00:11:20.907Z,61.63
2022-08-16T00:13:53.041Z,61.56
2022-08-16T00:17:05.506Z,61.35
2022-08-16T00:19:13.438Z,61.58
2022-08-16T00:21:42.244Z,61.78
2022-08-16T00:24:12.255Z,61.55
2022-08-16T00:26:44.543Z,61.41
2022-08-16T00:29:15.600Z,61.51
2022-08-16T00:31:47.061Z,62.06
2022-08-16T00:34:41.401Z,62.50
2022-08-16T00:37:18.483Z,62.12
2022-08-16T00:39:47.760Z,62.74
2022-08-16T00:42:30.345Z,62.27
2022-08-16T00:45:08.501Z,61.74
2022-08-16T00:47:38.510Z,62.20
2022-08-16T00:50:11.841Z,62.91
2022-08-16T00:52:45.821Z,63.29
2022-08-16T00:55:20.414Z,63.44
2022-08-16T00:58:00.052Z,63.97
2022-08-16T01:00:30.415Z,63.81
2022-08-16T01:03:00.847Z,63.41
2022-08-16T01:05:30.473Z,63.50
2022-08-16T01:08:01.141Z,63.26
2022-08-16T01:10:33.582Z,63.53
2022-08-16T01:13:05.580Z,63.69
2022-08-16T01:15:35.137Z,63.36
2022-08-16T01:18:04.425Z,63.09
2022-08-16T01:20:36.765Z,62.23
2022-08-16T01:23:09.164Z,62.54
2022-08-16T01:25:41.940Z,62.17
2022-08-16T01:28:19.972Z,63.03
2022-08-16T01:30:51.470Z,62.78
2022-08-16T01:33:20.571Z,63.05
2022-08-16T01:35:54.319Z,62.46
2022-08-16T01:38:28.413Z,61.81
2022-08-16T01:41:02.261Z,62.56
2022-08-16T01:43:31.604Z,62.13
2022-08-16T01:46:17.464Z,62.02
2022-08-16T01:48:48.943Z,62.09
2022-08-16T01:51:18.071Z,62.46
2022-08-16T01:53:55.524Z,62.58
2022-08-16T01:56:27.062Z,61.93
2022-08-16T01:58:57.330Z,62.48
2022-08-16T02:01:26.177Z,61.89
2022-08-16T02:03:58.621Z,62.24
2022-08-16T02:06:38.834Z,62.54
2022-08-16T02:09:11.989Z,62.64
2022-08-16T02:11:48.623Z,62.00
2022-08-16T02:14:22.417Z,62.28
2022-08-16T02:16:54.747Z,62.17
2022-08-16T02:19:24.400Z,62.06
2022-08-16T02:22:34.371Z,62.30
2022-08-16T02:25:02.465Z,61.71
2022-08-16T02:27:31.900Z,61.62
2022-08-16T02:30:05.308Z,61.63
2022-08-16T02:32:49.148Z,61.63
2022-08-16T02:35:23.120Z,61.93
2022-08-16T02:37:53.016Z,62.02
2022-08-16T02:40:22.335Z,62.12
2022-08-16T02:42:52.434Z,62.05
2022-08-16T02:45:24.649Z,61.87
2022-08-16T02:48:00.693Z,62.14
2022-08-16T02:50:53.706Z,62.05
2022-08-16T02:53:30.207Z,62.38
2022-08-16T02:55:57.922Z,62.39
2022-08-16T02:58:29.085Z,62.46
2022-08-16T03:00:57.657Z,62.30
2022-08-16T03:03:26.153Z,61.88
2022-08-16T03:05:54.248Z,62.04
2022-08-16T03:08:50.533Z,61.83
2022-08-16T03:11:20.471Z,61.76
2022-08-16T03:13:56.472Z,62.02
2022-08-16T03:16:38.397Z,62.02
2022-08-16T03:19:10.266Z,61.97
2022-08-16T03:21:38.853Z,62.09
2022-08-16T03:24:29.236Z,62.08
2022-08-16T03:26:58.077Z,62.09
2022-08-16T03:29:30.113Z,61.92
2022-08-16T03:31:59.027Z,62.07
2022-08-16T03:34:27.630Z,61.79
2022-08-16T03:36:55.770Z,62.53
2022-08-16T03:39:23.617Z,61.64
2022-08-16T03:41:59.767Z,62.46
2022-08-16T03:44:43.349Z,62.32
2022-08-16T03:47:18.579Z,62.06
2022-08-16T03:49:51.984Z,62.29
2022-08-16T03:52:20.475Z,62.14
2022-08-16T03:54:57.469Z,62.12
2022-08-16T03:57:31.859Z,62.48
2022-08-16T04:00:35.401Z,62.70
2022-08-16T04:03:07.504Z,62.63
2022-08-16T04:05:36.923Z,61.89
2022-08-16T04:08:23.339Z,62.28
2022-08-16T04:10:53.243Z,62.52
2022-08-16T04:14:00.681Z,61.87
2022-08-16T04:16:27.869Z,62.48
2022-08-16T04:19:01.986Z,62.47
2022-08-16T04:21:30.807Z,62.55
2022-08-16T04:23:59.981Z,62.46
2022-08-16T04:26:30.733Z,62.50
2022-08-16T04:29:16.892Z,62.37
2022-08-16T04:31:56.354Z,62.72
2022-08-16T04:34:27.329Z,63.08
2022-08-16T04:36:55.219Z,62.82
2022-08-16T04:39:25.171Z,62.72
2022-08-16T04:42:11.059Z,62.74
2022-08-16T04:44:53.913Z,62.81
2022-08-16T04:47:25.467Z,63.01
2022-08-16T04:49:59.949Z,62.84
2022-08-16T04:52:34.829Z,63.27
2022-08-16T04:55:06.059Z,62.98
2022-08-16T04:57:33.873Z,63.24
2022-08-16T05:00:31.079Z,63.38
2022-08-16T05:02:55.713Z,63.51
2022-08-16T05:05:24.284Z,63.53
2022-08-16T05:07:59.914Z,63.72
2022-08-16T05:10:29.446Z,63.70
2022-08-16T05:12:57.767Z,63.37
2022-08-16T05:15:25.801Z,63.17
2022-08-16T05:17:58.897Z,63.60
2022-08-16T05:20:39.494Z,63.61
2022-08-16T05:23:15.094Z,63.18
2022-08-16T05:25:48.710Z,63.24
2022-08-16T05:28:17.347Z,63.10
2022-08-16T05:30:46.148Z,62.82
2022-08-16T05:33:21.180Z,62.55
2022-08-16T05:35:54.810Z,62.87
2022-08-16T05:38:32.828Z,62.93
2022-08-16T05:41:09.319Z,62.82
2022-08-16T05:43:43.714Z,62.50
2022-08-16T05:46:30.331Z,62.95
2022-08-16T05:49:09.001Z,62.99
2022-08-16T05:51:40.301Z,62.90
2022-08-16T05:54:11.307Z,62.73
2022-08-16T05:56:39.725Z,62.76
2022-08-16T05:59:08.420Z,63.17
2022-08-16T06:01:38.243Z,62.89
2022-08-16T06:04:12.961Z,63.13
2022-08-16T06:06:57.028Z,63.29
2022-08-16T06:09:25.807Z,63.41
2022-08-16T06:12:12.727Z,63.50
2022-08-16T06:14:58.435Z,63.79
2022-08-16T06:17:43.935Z,63.49
2022-08-16T06:20:23.139Z,63.56
2022-08-16T06:22:57.916Z,64.16
2022-08-16T06:25:36.697Z,63.94
2022-08-16T06:28:08.615Z,63.38
2022-08-16T06:30:43.760Z,63.83
2022-08-16T06:33:13.061Z,63.81
2022-08-16T06:35:49.273Z,63.88
2022-08-16T06:38:34.026Z,63.78
2022-08-16T06:41:04.081Z,63.82
2022-08-16T06:43:32.358Z,63.68
2022-08-16T06:46:00.603Z,64.28
2022-08-16T06:48:32.817Z,64.15
2022-08-16T06:51:03.863Z,63.58
2022-08-16T06:53:33.753Z,63.52
2022-08-16T06:56:06.046Z,63.50
2022-08-16T06:58:41.530Z,63.78
2022-08-16T07:01:09.916Z,64.01
2022-08-16T07:03:55.028Z,63.80
2022-08-16T07:06:26.812Z,63.45
2022-08-16T07:08:55.337Z,63.69
2022-08-16T07:11:45.542Z,64.06
2022-08-16T07:14:24.198Z,63.47
2022-08-16T07:16:58.297Z,63.83
2022-08-16T07:20:01.377Z,63.77
2022-08-16T07:22:39.190Z,63.35
2022-08-16T07:25:05.311Z,63.70
2022-08-16T07:27:33.640Z,63.30
2022-08-16T07:30:01.830Z,63.18
2022-08-16T07:32:31.646Z,63.56
2022-08-16T07:34:59.508Z,63.06
2022-08-16T07:37:28.670Z,63.28
2022-08-16T07:39:57.260Z,62.78
2022-08-16T07:42:34.772Z,62.60
2022-08-16T07:45:03.413Z,62.92
2022-08-16T07:47:35.459Z,61.55
2022-08-16T07:50:07.810Z,62.04
2022-08-16T07:52:42.470Z,61.82
2022-08-16T07:55:11.634Z,61.61
2022-08-16T07:57:55.891Z,61.46
2022-08-16T08:00:27.169Z,61.30
2022-08-16T08:03:00.334Z,61.16
2022-08-16T08:05:35.792Z,61.29
2022-08-16T08:08:12.011Z,60.83
2022-08-16T08:10:53.872Z,61.29
2022-08-16T08:13:42.010Z,59.55
2022-08-16T08:16:18.325Z,59.25
2022-08-16T08:18:50.265Z,58.22
2022-08-16T08:21:27.339Z,58.37
2022-08-16T08:23:57.596Z,59.81
2022-08-16T08:26:26.049Z,60.01
2022-08-16T08:29:00.951Z,58.22
2022-08-16T08:31:29.066Z,57.56
2022-08-16T08:33:58.463Z,57.45
2022-08-16T08:36:33.476Z,58.15
2022-08-16T08:40:45.951Z,56.27
2022-08-16T08:43:18.391Z,56.45
2022-08-16T08:45:48.542Z,55.53
2022-08-16T08:48:33.329Z,55.37
2022-08-16T08:51:02.876Z,55.87
2022-08-16T08:53:30.859Z,55.35
2022-08-16T08:56:00.192Z,55.85
2022-08-16T08:58:34.223Z,56.53
2022-08-16T09:01:02.981Z,55.43
2022-08-16T09:03:32.622Z,55.80
2022-08-16T09:06:00.573Z,54.80
2022-08-16T09:08:28.445Z,54.95
2022-08-16T09:11:02.410Z,54.87
2022-08-16T09:13:33.956Z,54.20
2022-08-16T09:16:02.933Z,54.07
2022-08-16T09:18:35.970Z,53.84
2022-08-16T09:21:09.548Z,54.68
2022-08-16T09:23:37.673Z,55.00
2022-08-16T09:26:45.684Z,55.08
2022-08-16T09:29:14.773Z,53.48
2022-08-16T09:31:42.707Z,54.67
2022-08-16T09:34:11.155Z,53.96
2022-08-16T09:36:46.211Z,53.60
2022-08-16T09:39:16.047Z,54.90
2022-08-16T09:41:53.149Z,53.50
2022-08-16T09:45:11.227Z,51.74
2022-08-16T09:47:11.943Z,52.71
2022-08-16T09:49:41.183Z,52.21
2022-08-16T09:52:10.149Z,52.65
2022-08-16T09:54:38.527Z,52.77
2022-08-16T09:57:12.438Z,52.26
2022-08-16T09:59:42.111Z,52.07
2022-08-16T10:02:26.176Z,51.89
2022-08-16T10:04:55.867Z,52.02
2022-08-16T10:07:23.836Z,52.41
2022-08-16T10:09:55.608Z,51.59
2022-08-16T10:12:43.426Z,51.33
2022-08-16T10:15:15.582Z,51.78
2022-08-16T10:17:45.700Z,51.64
2022-08-16T10:20:30.883Z,50.68
2022-08-16T10:23:05.138Z,50.65
2022-08-16T10:27:19.575Z,51.92
2022-08-16T10:28:32.060Z,49.53
2022-08-16T10:31:03.674Z,49.26
2022-08-16T10:33:34.026Z,49.70
2022-08-16T10:36:04.906Z,48.37
2022-08-16T10:38:36.841Z,47.56
2022-08-16T10:41:05.613Z,47.32
2022-08-16T10:43:35.597Z,47.06
2022-08-16T10:46:39.209Z,46.82
2022-08-16T10:48:53.620Z,45.69
2022-08-16T10:51:21.335Z,45.11
2022-08-16T10:54:02.925Z,44.06
2022-08-16T10:56:55.891Z,44.66
2022-08-16T10:59:45.017Z,43.97
2022-08-16T11:02:59.078Z,43.71
2022-08-16T11:05:08.563Z,43.08
2022-08-16T11:07:45.162Z,43.19
2022-08-16T11:16:25.442Z,41.56
2022-08-16T11:19:05.868Z,40.67
2022-08-16T11:22:39.620Z,41.08
2022-08-16T11:24:42.571Z,39.40
2022-08-16T11:27:23.253Z,39.33
2022-08-16T11:29:53.393Z,38.56
2022-08-16T11:32:32.379Z,38.96
2022-08-16T11:35:10.200Z,39.58
2022-08-16T11:40:32.270Z,41.05
2022-08-16T11:43:00.253Z,40.95
2022-08-16T11:45:28.119Z,41.28
2022-08-16T11:48:01.438Z,40.37
2022-08-16T11:50:33.210Z,39.06
2022-08-16T11:53:03.422Z,37.13
2022-08-16T11:55:32.620Z,37.31
2022-08-16T11:58:01.215Z,36.74
2022-08-16T12:00:33.518Z,37.89
2022-08-16T12:03:19.232Z,38.15
2022-08-16T12:05:52.109Z,37.00
2022-08-16T12:08:26.010Z,38.84
2022-08-16T12:10:55.293Z,36.94
2022-08-16T12:13:27.433Z,37.35
2022-08-16T12:15:55.921Z,36.72
2022-08-16T12:18:24.435Z,37.30
2022-08-16T12:20:55.333Z,36.87
2022-08-16T12:23:25.993Z,37.68
2022-08-16T12:25:54.126Z,37.78
2022-08-16T12:28:25.365Z,36.58
2022-08-16T12:31:05.561Z,36.56
2022-08-16T12:33:44.676Z,35.69
2022-08-16T12:36:14.550Z,35.20
2022-08-16T12:38:48.275Z,35.24
2022-08-16T12:41:24.647Z,35.92
2022-08-16T12:43:57.170Z,36.12
2022-08-16T12:46:30.998Z,36.02
2022-08-16T12:48:58.687Z,35.40
2022-08-16T12:51:57.566Z,36.21
2022-08-16T12:54:19.804Z,36.36
2022-08-16T12:56:48.225Z,36.20
2022-08-16T12:59:20.462Z,36.63
2022-08-16T13:01:50.311Z,35.21
2022-08-16T13:04:20.333Z,35.33
2022-08-16T13:06:52.540Z,35.42
2022-08-16T13:09:26.130Z,35.60
2022-08-16T13:12:04.525Z,34.44
2022-08-16T13:14:35.419Z,35.04
2022-08-16T13:17:06.487Z,35.46
2022-08-16T13:20:05.553Z,36.38
2022-08-16T13:22:24.756Z,34.83
2022-08-16T13:24:53.660Z,35.37
2022-08-16T13:28:03.274Z,35.92
2022-08-16T13:30:36.079Z,34.62
2022-08-16T13:32:59.283Z,35.42
2022-08-16T13:35:34.621Z,35.47
2022-08-16T13:38:04.158Z,36.31
2022-08-16T13:40:34.286Z,36.23
2022-08-16T13:43:02.834Z,36.61
2022-08-16T13:45:36.152Z,36.09
2022-08-16T13:48:05.528Z,34.26
2022-08-16T13:50:51.757Z,35.43
2022-08-16T13:53:24.508Z,34.59
2022-08-16T13:55:58.597Z,34.99
2022-08-16T13:58:35.772Z,34.81
2022-08-16T14:01:09.441Z,36.69
2022-08-16T14:03:38.026Z,35.25
2022-08-16T14:06:10.883Z,33.87
2022-08-16T14:08:42.165Z,34.68
2022-08-16T14:11:11.953Z,34.87
2022-08-16T14:13:40.964Z,35.15
2022-08-16T14:16:23.424Z,35.43
2022-08-16T14:18:52.736Z,34.67
2022-08-16T14:21:21.864Z,34.76
2022-08-16T14:23:53.045Z,35.17
2022-08-16T14:26:21.451Z,34.92
2022-08-16T14:28:50.994Z,35.75
2022-08-16T14:31:19.981Z,35.67
2022-08-16T14:33:47.664Z,34.60
2022-08-16T14:36:18.830Z,35.19
2022-08-16T14:38:54.447Z,35.93
2022-08-16T14:41:22.271Z,35.45
2022-08-16T14:43:50.738Z,36.79
2022-08-16T14:46:18.711Z,34.82
2022-08-16T14:48:46.415Z,35.17
2022-08-16T14:51:15.784Z,35.23
2022-08-16T14:53:45.332Z,36.34
2022-08-16T14:56:17.412Z,34.79
2022-08-16T14:59:02.514Z,34.79
2022-08-16T15:01:52.130Z,35.12
2022-08-16T15:04:39.266Z,34.42
2022-08-16T15:07:06.945Z,35.28
2022-08-16T15:09:43.863Z,34.42
2022-08-16T15:12:33.564Z,33.99
2022-08-16T15:15:12.795Z,34.29
2022-08-16T15:17:54.500Z,33.94
2022-08-16T15:20:26.123Z,34.08
2022-08-16T15:22:54.984Z,34.08
2022-08-16T15:25:27.621Z,34.65
2022-08-16T15:28:00.794Z,35.27
2022-08-16T15:30:59.878Z,35.30
2022-08-16T15:33:23.184Z,35.00
2022-08-16T15:35:55.563Z,36.02
2022-08-16T15:38:55.240Z,35.40
2022-08-16T15:41:32.442Z,35.33
2022-08-16T15:44:05.521Z,35.72
2022-08-16T15:46:56.482Z,36.24
2022-08-16T15:49:34.809Z,36.12
2022-08-16T15:52:16.323Z,36.17
2022-08-16T15:54:52.604Z,35.99
2022-08-16T15:57:21.662Z,36.76
2022-08-16T15:59:52.941Z,36.89
2022-08-16T16:02:29.641Z,36.48
2022-08-16T16:05:00.630Z,36.29
2022-08-16T16:07:30.318Z,35.99
2022-08-16T16:09:58.815Z,35.71
2022-08-16T16:12:51.429Z,36.18
2022-08-16T16:15:16.735Z,36.25
2022-08-16T16:19:05.098Z,35.44
2022-08-16T16:21:35.246Z,35.62
2022-08-16T16:24:03.314Z,35.98
2022-08-16T16:26:51.327Z,35.96
2022-08-16T16:29:19.309Z,36.50
2022-08-16T16:31:53.064Z,37.03
2022-08-16T16:34:32.457Z,36.72
2022-08-16T16:37:02.945Z,36.11
2022-08-16T16:39:32.691Z,35.88
2022-08-16T16:42:00.562Z,36.32
2022-08-16T16:44:33.648Z,36.15
2022-08-16T16:47:03.871Z,36.55
2022-08-16T16:49:33.809Z,35.68
2022-08-16T16:52:07.411Z,35.77
2022-08-16T16:54:35.578Z,35.91
2022-08-16T16:57:03.356Z,36.56
2022-08-16T16:59:30.723Z,37.77
2022-08-16T17:02:39.006Z,38.58
2022-08-16T17:04:49.802Z,38.65
2022-08-16T17:07:17.858Z,38.90
2022-08-16T17:09:51.751Z,38.93
2022-08-16T17:12:24.556Z,39.01
2022-08-16T17:14:53.316Z,39.83
2022-08-16T17:17:20.999Z,39.57
2022-08-16T17:19:50.496Z,39.80
2022-08-16T17:22:20.203Z,39.64
2022-08-16T17:24:50.319Z,39.51
2022-08-16T17:27:32.057Z,39.44
2022-08-16T17:30:01.306Z,39.67
2022-08-16T17:32:33.550Z,39.45
2022-08-16T17:35:21.407Z,39.58
2022-08-16T17:37:52.161Z,40.01
2022-08-16T17:40:25.338Z,40.29
2022-08-16T17:43:05.513Z,41.04
2022-08-16T17:45:33.247Z,41.10
2022-08-16T17:48:01.203Z,42.29
2022-08-16T17:50:30.429Z,43.40
2022-08-16T17:52:58.428Z,43.87
2022-08-16T17:55:28.911Z,44.26
2022-08-16T17:57:56.642Z,44.56
2022-08-16T18:00:25.209Z,44.96
2022-08-16T18:02:53.361Z,45.08
2022-08-16T18:05:21.310Z,45.20
2022-08-16T18:07:50.378Z,45.37
2022-08-16T18:10:31.267Z,45.36
2022-08-16T18:13:02.311Z,45.83
2022-08-16T18:15:30.984Z,45.91
2022-08-16T18:17:58.743Z,45.99
2022-08-16T18:20:44.087Z,45.89
2022-08-16T18:23:15.537Z,45.96
2022-08-16T18:25:47.178Z,46.35
2022-08-16T18:28:15.166Z,46.41
2022-08-16T18:30:45.799Z,46.03
2022-08-16T18:33:18.045Z,46.68
2022-08-16T18:35:46.035Z,46.90
2022-08-16T18:38:15.155Z,46.89
2022-08-16T18:40:43.558Z,46.80
2022-08-16T18:43:14.035Z,46.89
2022-08-16T18:45:43.388Z,47.18
2022-08-16T18:48:12.398Z,47.10
2022-08-16T18:51:04.481Z,47.40
2022-08-16T18:53:30.984Z,47.29
2022-08-16T18:56:00.007Z,47.58
2022-08-16T18:58:28.496Z,47.52
2022-08-16T19:00:57.414Z,47.64
2022-08-16T19:03:27.043Z,47.77
2022-08-16T19:05:57.903Z,47.87
2022-08-16T19:08:26.380Z,48.28
2022-08-16T19:10:55.743Z,48.21
2022-08-16T19:13:25.168Z,48.32
2022-08-16T19:15:54.373Z,48.13
2022-08-16T19:18:22.883Z,48.53
2022-08-16T19:20:51.076Z,48.68
2022-08-16T19:23:25.978Z,48.87
2022-08-16T19:25:58.397Z,48.73
2022-08-16T19:28:50.503Z,48.78
2022-08-16T19:31:22.825Z,48.85
2022-08-16T19:33:54.842Z,49.06
2022-08-16T19:36:31.805Z,48.92
2022-08-16T19:39:06.940Z,49.16
2022-08-16T19:41:39.639Z,49.31
2022-08-16T19:44:07.650Z,49.72
2022-08-16T19:46:35.723Z,50.05
2022-08-16T19:49:04.220Z,49.58
2022-08-16T19:51:31.921Z,49.90
2022-08-16T19:53:59.798Z,49.55
2022-08-16T19:56:27.594Z,49.36
2022-08-16T19:59:18.218Z,49.26
2022-08-16T20:01:45.072Z,49.90
2022-08-16T20:04:13.446Z,49.49
2022-08-16T20:06:41.293Z,49.56
2022-08-16T20:09:10.460Z,49.13
2022-08-16T20:11:42.358Z,49.55
2022-08-16T20:14:11.505Z,49.63
2022-08-16T20:16:47.121Z,49.36
2022-08-16T20:19:14.904Z,49.30
2022-08-16T20:21:42.633Z,49.36
2022-08-16T20:24:32.959Z,49.63
2022-08-16T20:26:58.365Z,49.35
2022-08-16T20:29:27.429Z,49.57
2022-08-16T20:31:55.080Z,49.73
2022-08-16T20:34:22.742Z,49.67
2022-08-16T20:36:50.472Z,49.62
2022-08-16T20:39:18.174Z,49.33
2022-08-16T20:41:46.064Z,49.55
2022-08-16T20:44:14.057Z,49.56
2022-08-16T20:46:43.244Z,49.98
2022-08-16T20:49:11.082Z,49.81
2022-08-16T20:51:49.454Z,50.32
2022-08-16T20:54:18.854Z,50.10
2022-08-16T20:56:46.589Z,50.04
2022-08-16T20:59:14.580Z,50.75
2022-08-16T21:01:46.390Z,50.90
2022-08-16T21:04:18.712Z,51.34
2022-08-16T21:06:54.113Z,51.49
2022-08-16T21:09:23.465Z,51.94
2022-08-16T21:11:53.393Z,52.18
2022-08-16T21:14:21.085Z,52.39
2022-08-16T21:16:50.368Z,52.46
2022-08-16T21:19:18.275Z,52.68
2022-08-16T21:21:45.975Z,52.69
2022-08-16T21:24:14.296Z,52.79
2022-08-16T21:26:53.869Z,53.20
2022-08-16T21:29:31.614Z,53.36
2022-08-16T21:32:12.861Z,52.77
2022-08-16T21:34:41.350Z,53.33
2022-08-16T21:37:09.179Z,53.59
2022-08-16T21:39:37.078Z,53.54
2022-08-16T21:42:09.172Z,53.53
2022-08-16T21:44:39.070Z,53.42
2022-08-16T21:47:07.038Z,53.48
2022-08-16T21:49:37.849Z,53.77
2022-08-16T21:52:06.998Z,53.64
2022-08-16T21:54:35.218Z,53.79
2022-08-16T21:57:05.520Z,53.98
2022-08-16T21:59:35.197Z,53.93
2022-08-16T22:02:02.953Z,53.80
2022-08-16T22:04:37.413Z,54.04
2022-08-16T22:07:08.039Z,53.99
2022-08-16T22:09:35.856Z,54.03
2022-08-16T22:12:03.552Z,53.97
2022-08-16T22:14:31.368Z,54.10
2022-08-16T22:16:59.131Z,53.98
2022-08-16T22:19:26.811Z,53.73
2022-08-16T22:21:55.602Z,54.04
2022-08-16T22:24:24.633Z,53.73
2022-08-16T22:26:52.343Z,53.86
2022-08-16T22:29:20.481Z,53.81
2022-08-16T22:31:48.261Z,53.85
2022-08-16T22:34:16.439Z,54.07
2022-08-16T22:36:44.207Z,53.92
2022-08-16T22:39:13.712Z,54.35
2022-08-16T22:41:45.567Z,54.31
2022-08-16T22:44:13.874Z,54.37
2022-08-16T22:46:41.565Z,54.43
2022-08-16T22:49:10.198Z,54.36
2022-08-16T22:51:38.448Z,54.74
2022-08-16T22:54:44.160Z,54.59
2022-08-16T22:56:57.334Z,54.97
2022-08-16T22:59:25.966Z,55.34
2022-08-16T23:01:53.872Z,55.22
2022-08-16T23:04:22.787Z,55.34
2022-08-16T23:06:50.504Z,55.46
2022-08-16T23:09:18.284Z,55.57
2022-08-16T23:11:46.053Z,55.60
2022-08-16T23:14:16.203Z,55.90
2022-08-16T23:16:47.382Z,55.99
2022-08-16T23:19:16.672Z,56.14
2022-08-16T23:21:47.050Z,56.39
2022-08-16T23:24:17.583Z,56.05
2022-08-16T23:26:48.822Z,56.32
2022-08-16T23:29:23.820Z,56.34
2022-08-16T23:31:53.712Z,56.21
2022-08-16T23:34:21.832Z,56.39
2022-08-16T23:36:49.685Z,56.45
2022-08-16T23:39:17.398Z,56.53
2022-08-16T23:41:45.266Z,56.87
2022-08-16T23:44:56.519Z,56.62
2022-08-16T23:47:02.105Z,56.46
2022-08-16T23:49:58.779Z,56.64
2022-08-16T23:52:18.998Z,56.90
2022-08-16T23:55:07.482Z,56.74
2022-08-16T23:57:35.150Z,56.97
